Time;durP1;ratioP1;P1;durP2;ratioP2;P2;SDS_P1;SDS_P2;PMS_P1;PMS_P2;Temp;Humidity;BMP_temperature;BMP_pressure;BME280_temperature;BME280_humidity;BME280_pressure;Samples;Min_cycle;Max_cycle;Signal;HPM_P1;HPM_P2
2023/06/20 00:01:29;;;;;;;;;;;;;;;24.59;49.14;99607.88;5093217;28;19974;-37
2023/06/20 00:03:54;;;;;;;;;;;;;;;24.63;48.79;99602.63;5093640;28;19919;-37
2023/06/20 00:06:22;;;;;;;;;;;;;;;24.57;48.63;99602.72;5093288;28;19913;-37
2023/06/20 00:08:47;;;;;;;;;;;;;;;24.42;49.07;99597.53;5092955;28;20025;-37
2023/06/20 00:11:12;;;;;;;;;;;;;;;24.43;48.86;99609.19;5093076;28;19924;-37
2023/06/20 00:13:42;;;;;;;;;;;;;;;24.64;48.04;99604.25;5093500;28;19920;-37
2023/06/20 00:16:08;;;;;;;;;;;;;;;24.68;47.71;99600.63;5093208;28;19916;-37
2023/06/20 00:18:33;;;;;;;;;;;;;;;24.68;47.67;99606.06;5093173;28;19935;-37
2023/06/20 00:20:58;;;;;;;;;;;;;;;24.62;47.67;99601.84;5093155;28;19912;-36
2023/06/20 00:23:24;;;;;;;;;;;;;;;24.67;48.43;99600.91;5092763;28;19962;-36
2023/06/20 00:25:50;;;;;;;;;;;;;;;24.34;49.56;99603.66;5092936;28;20291;-36
2023/06/20 00:28:18;;;;;;;;;;;;;;;24.41;49.46;99598.66;5092873;28;19912;-36
2023/06/20 00:30:44;;;;;;;;;;;;;;;24.62;48.35;99601.84;5092678;28;21088;-36
2023/06/20 00:33:10;;;;;;;;;;;;;;;24.68;47.77;99597.09;5092658;28;20007;-36
2023/06/20 00:35:35;;;;;;;;;;;;;;;24.53;48.48;99604.44;5092906;28;19976;-37
2023/06/20 00:38:01;;;;;;;;;;;;;;;24.63;48.28;99602.63;5092459;28;19912;-36
2023/06/20 00:40:26;;;;;;;;;;;;;;;24.39;49.01;99598.94;5092873;28;19919;-36
2023/06/20 00:42:52;;;;;;;;;;;;;;;24.43;47.86;99593.72;5092293;28;19912;-36
2023/06/20 00:45:28;;;;;;;;;;;;;;;24.56;47.77;99598.41;5092272;28;19912;-36
2023/06/20 00:47:54;;;;;;;;;;;;;;;24.51;47.66;99600.38;5092669;28;19943;-36
2023/06/20 00:50:19;;;;;;;;;;;;;;;24.55;47.40;99604.13;5091671;28;19988;-36
2023/06/20 00:52:45;;;;;;;;;;;;;;;24.49;47.00;99608.84;5092193;28;19912;-36
2023/06/20 00:55:11;;;;;;;;;;;;;;;24.42;47.56;99602.16;5092256;28;19918;-36
2023/06/20 00:57:37;;;;;;;;;;;;;;;24.31;48.14;99604.25;5092128;28;19912;-36
2023/06/20 01:00:06;;;;;;;;;;;;;;;24.20;48.64;99601.72;5092404;28;19958;-36
2023/06/20 01:02:31;;;;;;;;;;;;;;;24.19;48.82;99602.00;5092328;28;20342;-36
2023/06/20 01:04:56;;;;;;;;;;;;;;;24.22;49.34;99601.41;5092161;28;20491;-36
2023/06/20 01:07:27;;;;;;;;;;;;;;;24.23;49.42;99605.75;5091923;28;19912;-36
2023/06/20 01:10:08;;;;;;;;;;;;;;;24.13;49.51;99609.44;5091891;28;19916;-36
2023/06/20 01:12:39;;;;;;;;;;;;;;;23.27;50.80;99600.63;5091874;28;19920;-37
2023/06/20 01:15:23;;;;;;;;;;;;;;;23.00;51.86;99597.38;5092399;28;19912;-36
2023/06/20 01:17:49;;;;;;;;;;;;;;;22.69;52.92;99602.31;5092139;28;20002;-36
2023/06/20 01:20:16;;;;;;;;;;;;;;;22.65;52.99;99604.78;5091815;28;19939;-36
2023/06/20 01:22:56;;;;;;;;;;;;;;;23.03;52.28;99604.16;5092059;28;19912;-37
2023/06/20 01:25:38;;;;;;;;;;;;;;;23.25;51.36;99609.06;5091730;28;19912;-36
2023/06/20 01:28:26;;;;;;;;;;;;;;;23.50;50.69;99609.81;5091772;28;20007;-36
2023/06/20 01:31:03;;;;;;;;;;;;;;;23.60;50.42;99604.25;5091358;28;19927;-36
2023/06/20 01:33:30;;;;;;;;;;;;;;;23.72;50.59;99607.34;5091446;28;19962;-36
2023/06/20 01:35:56;;;;;;;;;;;;;;;23.49;50.43;99600.03;5091634;28;19912;-36
2023/06/20 01:38:25;;;;;;;;;;;;;;;23.49;50.72;99597.34;5091604;28;19973;-37
2023/06/20 01:40:51;;;;;;;;;;;;;;;23.45;50.48;99591.69;5091245;28;19999;-37
2023/06/20 01:43:18;;;;;;;;;;;;;;;23.62;50.11;99596.59;5091676;28;19939;-37
2023/06/20 01:45:45;;;;;;;;;;;;;;;23.72;50.01;99593.75;5091467;28;19920;-41
2023/06/20 01:48:11;;;;;;;;;;;;;;;23.43;51.09;99602.81;5091496;28;20321;-37
2023/06/20 01:50:37;;;;;;;;;;;;;;;23.31;51.28;99596.22;5091432;28;19912;-37
2023/06/20 01:53:03;;;;;;;;;;;;;;;23.16;51.27;99595.31;5091241;28;20232;-37
2023/06/20 01:55:29;;;;;;;;;;;;;;;22.67;52.82;99592.88;5091171;28;19916;-37
2023/06/20 01:57:57;;;;;;;;;;;;;;;22.94;52.48;99586.88;5091381;28;20386;-36
2023/06/20 02:00:24;;;;;;;;;;;;;;;22.65;52.73;99595.84;5092662;28;19916;-37
2023/06/20 02:02:50;;;;;;;;;;;;;;;22.83;53.26;99605.97;5095500;28;19962;-37
2023/06/20 02:05:17;;;;;;;;;;;;;;;22.71;53.50;99610.19;5095467;28;19916;-37
2023/06/20 02:07:44;;;;;;;;;;;;;;;21.85;55.86;99608.69;5095513;28;19919;-36
2023/06/20 02:10:11;;;;;;;;;;;;;;;22.19;55.16;99596.28;5095404;28;20367;-36
2023/06/20 02:12:37;;;;;;;;;;;;;;;21.86;55.61;99604.13;5095533;28;19924;-37
2023/06/20 02:15:03;;;;;;;;;;;;;;;22.02;55.26;99602.09;5095237;28;19964;-36
2023/06/20 02:17:28;;;;;;;;;;;;;;;22.51;53.97;99603.88;5095455;28;20017;-36
2023/06/20 02:19:54;;;;;;;;;;;;;;;22.44;54.39;99606.91;5095260;28;20368;-37
2023/06/20 02:22:21;;;;;;;;;;;;;;;22.75;53.41;99605.78;5095493;28;20379;-36
2023/06/20 02:24:48;;;;;;;;;;;;;;;22.81;53.44;99604.66;5095238;28;19916;-37
2023/06/20 02:27:15;;;;;;;;;;;;;;;22.97;52.79;99605.28;5095099;28;20391;-37
2023/06/20 02:29:41;;;;;;;;;;;;;;;23.03;52.53;99604.16;5095322;28;19912;-37
2023/06/20 02:32:08;;;;;;;;;;;;;;;23.17;52.18;99604.25;5095048;28;20003;-37
2023/06/20 02:34:34;;;;;;;;;;;;;;;23.18;52.32;99609.41;5094632;28;20406;-37
2023/06/20 02:37:02;;;;;;;;;;;;;;;23.11;52.52;99600.00;5094949;28;19966;-37
2023/06/20 02:39:27;;;;;;;;;;;;;;;23.04;53.57;99608.50;5094700;28;19912;-37
2023/06/20 02:41:53;;;;;;;;;;;;;;;22.92;53.52;99608.84;5094976;28;20006;-37
2023/06/20 02:44:18;;;;;;;;;;;;;;;22.76;53.64;99618.28;5094637;28;19912;-37
2023/06/20 02:46:43;;;;;;;;;;;;;;;22.95;52.83;99612.91;5094595;28;20015;-37
2023/06/20 02:49:18;;;;;;;;;;;;;;;22.61;54.19;99620.03;5094769;28;19916;-37
2023/06/20 02:52:04;;;;;;;;;;;;;;;22.33;55.37;99615.41;5094996;28;19916;-35
2023/06/20 02:54:35;;;;;;;;;;;;;;;22.45;54.72;99626.72;5082991;28;20287;-37
2023/06/20 02:57:02;;;;;;;;;;;;;;;22.81;53.72;99621.75;5094478;28;19916;-37
2023/06/20 02:59:28;;;;;;;;;;;;;;;22.61;53.97;99625.44;5089230;28;19912;-37
2023/06/20 03:01:56;;;;;;;;;;;;;;;22.88;53.73;99624.09;5074440;28;19948;-36
2023/06/20 03:04:22;;;;;;;;;;;;;;;22.97;53.94;99630.50;5087579;28;20272;-36
2023/06/20 03:06:51;;;;;;;;;;;;;;;23.20;52.76;99625.41;5094567;28;20012;-36
2023/06/20 03:09:17;;;;;;;;;;;;;;;23.37;52.04;99623.00;5094601;28;19912;-37
2023/06/20 03:11:42;;;;;;;;;;;;;;;23.42;52.50;99633.81;5093512;28;19955;-35
2023/06/20 03:14:12;;;;;;;;;;;;;;;23.56;51.71;99636.59;5093850;28;19962;-36
2023/06/20 03:16:37;;;;;;;;;;;;;;;23.60;51.49;99640.34;5089555;28;19923;-36
2023/06/20 03:19:03;;;;;;;;;;;;;;;23.73;51.25;99638.03;5094197;28;19927;-36
2023/06/20 03:21:28;;;;;;;;;;;;;;;23.73;51.20;99638.03;5094279;28;20333;-36
2023/06/20 03:23:53;;;;;;;;;;;;;;;23.58;51.76;99639.84;5094184;28;19912;-37
2023/06/20 03:26:19;;;;;;;;;;;;;;;23.68;51.39;99643.50;5093888;28;19912;-37
2023/06/20 03:28:44;;;;;;;;;;;;;;;23.67;51.64;99639.19;5093991;28;19928;-36
2023/06/20 03:31:09;;;;;;;;;;;;;;;23.78;51.40;99644.22;5093851;28;19966;-37
2023/06/20 03:33:35;;;;;;;;;;;;;;;23.82;51.13;99649.88;5087403;28;19920;-36
2023/06/20 03:36:00;;;;;;;;;;;;;;;23.90;50.81;99645.69;5073297;28;19912;-37
2023/06/20 03:38:26;;;;;;;;;;;;;;;23.83;51.13;99651.47;5073671;28;19915;-37
2023/06/20 03:40:51;;;;;;;;;;;;;;;24.08;50.71;99654.91;5073113;28;19913;-37
2023/06/20 03:43:17;;;;;;;;;;;;;;;24.14;50.66;99656.44;5074613;28;19934;-37
2023/06/20 03:45:42;;;;;;;;;;;;;;;24.32;50.46;99665.69;5095445;28;20312;-37
2023/06/20 03:48:07;;;;;;;;;;;;;;;24.75;49.31;99658.19;5093835;28;19930;-37
2023/06/20 03:50:33;;;;;;;;;;;;;;;24.92;48.57;99652.16;5087028;28;19924;-37
2023/06/20 03:52:58;;;;;;;;;;;;;;;25.24;47.54;99642.28;5086827;28;19969;-36
2023/06/20 03:55:23;;;;;;;;;;;;;;;25.60;46.99;99652.44;5093325;28;20406;-37
2023/06/20 03:57:48;;;;;;;;;;;;;;;25.88;48.01;99653.19;5093230;28;19916;-37
2023/06/20 04:00:14;;;;;;;;;;;;;;;26.12;46.96;99652.09;5092929;28;20240;-36
2023/06/20 04:02:43;;;;;;;;;;;;;;;26.49;45.61;99663.75;5093234;28;19955;-37
2023/06/20 04:05:09;;;;;;;;;;;;;;;26.81;44.72;99654.50;5092968;28;19916;-37
2023/06/20 04:07:34;;;;;;;;;;;;;;;26.83;44.20;99665.91;5093189;28;20061;-36
2023/06/20 04:10:00;;;;;;;;;;;;;;;27.22;43.70;99666.22;5093023;28;20011;-36
2023/06/20 04:12:25;;;;;;;;;;;;;;;27.34;43.44;99660.16;5092817;28;20338;-36
2023/06/20 04:14:52;;;;;;;;;;;;;;;27.62;42.21;99664.22;5092869;28;20282;-36
2023/06/20 04:17:18;;;;;;;;;;;;;;;28.01;41.32;99665.28;5092996;28;19912;-37
2023/06/20 04:19:43;;;;;;;;;;;;;;;28.44;40.14;99666.34;5092863;28;20003;-35
2023/06/20 04:22:09;;;;;;;;;;;;;;;28.47;40.04;99663.75;5092946;28;19923;-36
2023/06/20 04:24:36;;;;;;;;;;;;;;;28.92;38.89;99673.50;5092768;28;19985;-37
2023/06/20 04:27:02;;;;;;;;;;;;;;;28.92;39.17;99675.41;5090584;28;19935;-37
2023/06/20 04:29:29;;;;;;;;;;;;;;;29.32;38.32;99675.94;5092449;28;19928;-37
2023/06/20 04:31:54;;;;;;;;;;;;;;;29.63;37.69;99677.50;5092270;28;20393;-37
2023/06/20 04:34:23;;;;;;;;;;;;;;;29.57;37.52;99671.41;5092308;28;19920;-37
2023/06/20 04:36:48;;;;;;;;;;;;;;;29.39;37.79;99669.91;5092529;28;19935;-36
2023/06/20 04:39:14;;;;;;;;;;;;;;;29.22;38.04;99674.34;5092598;28;19958;-36
2023/06/20 04:41:39;;;;;;;;;;;;;;;28.97;38.96;99684.25;5092424;28;19912;-36
2023/06/20 04:44:04;;;;;;;;;;;;;;;29.26;38.73;99674.47;5092750;28;19912;-36
2023/06/20 04:46:29;;;;;;;;;;;;;;;29.85;37.95;99678.34;5090522;28;19917;-36
2023/06/20 04:48:55;;;;;;;;;;;;;;;30.41;36.17;99687.09;5091843;28;19998;-36
2023/06/20 04:51:20;;;;;;;;;;;;;;;30.57;35.78;99687.25;5092088;28;19919;-36
2023/06/20 04:53:48;;;;;;;;;;;;;;;30.68;35.76;99685.66;5091714;28;20395;-37
2023/06/20 04:56:15;;;;;;;;;;;;;;;30.53;35.66;99684.38;5091092;28;19924;-36
2023/06/20 04:58:40;;;;;;;;;;;;;;;31.01;35.17;99687.56;5090681;28;19991;-37
2023/06/20 05:01:06;;;;;;;;;;;;;;;31.34;34.32;99687.47;5090815;28;19999;-37
2023/06/20 05:03:31;;;;;;;;;;;;;;;31.86;33.75;99687.88;5091225;28;19912;-36
2023/06/20 05:05:56;;;;;;;;;;;;;;;32.14;33.74;99691.50;5090301;28;19912;-36
2023/06/20 05:08:22;;;;;;;;;;;;;;;32.40;33.43;99698.47;5090428;28;20296;-39
2023/06/20 05:10:47;;;;;;;;;;;;;;;32.57;32.98;99699.34;5090367;28;19934;-38
2023/06/20 05:13:13;;;;;;;;;;;;;;;32.83;33.05;99699.66;5090655;28;19932;-38
2023/06/20 05:15:38;;;;;;;;;;;;;;;32.72;32.85;99693.84;5091112;28;19966;-36
2023/06/20 05:18:03;;;;;;;;;;;;;;;33.09;32.41;99699.13;5090897;28;20399;-37
2023/06/20 05:20:28;;;;;;;;;;;;;;;33.14;31.68;99697.28;5091076;28;19912;-37
2023/06/20 05:22:54;;;;;;;;;;;;;;;33.61;31.11;99691.69;5091044;28;19919;-37
2023/06/20 05:25:19;;;;;;;;;;;;;;;34.00;30.41;99700.03;5090812;28;19989;-37
2023/06/20 05:27:46;;;;;;;;;;;;;;;34.45;29.73;99698.56;5090926;28;19923;-36
2023/06/20 05:30:11;;;;;;;;;;;;;;;34.21;30.94;99690.59;5091400;28;19916;-36
2023/06/20 05:32:37;;;;;;;;;;;;;;;34.75;29.30;99689.69;5090914;28;19943;-37
2023/06/20 05:35:03;;;;;;;;;;;;;;;34.85;29.81;99689.06;5090434;28;19974;-37
2023/06/20 05:37:28;;;;;;;;;;;;;;;35.30;29.86;99685.84;5091176;28;19919;-37
2023/06/20 05:39:54;;;;;;;;;;;;;;;34.77;29.92;99686.56;5090021;28;19927;-35
2023/06/20 05:42:19;;;;;;;;;;;;;;;34.81;29.27;99682.69;5089485;28;19947;-36
2023/06/20 05:44:44;;;;;;;;;;;;;;;35.66;28.67;99675.28;5089772;28;19912;-36
2023/06/20 05:47:17;;;;;;;;;;;;;;;35.70;28.23;99679.75;5089739;28;19943;-36
2023/06/20 05:49:42;;;;;;;;;;;;;;;34.43;29.40;99687.09;5089296;28;19998;-37
2023/06/20 05:52:08;;;;;;;;;;;;;;;33.67;30.24;99686.72;5089963;28;20297;-37
2023/06/20 05:54:33;;;;;;;;;;;;;;;34.66;29.31;99678.81;5090283;28;19969;-36
2023/06/20 05:56:58;;;;;;;;;;;;;;;34.40;29.38;99685.06;5090521;28;19916;-37
2023/06/20 05:59:26;;;;;;;;;;;;;;;34.02;30.06;99674.81;5090441;28;20280;-37
2023/06/20 06:01:52;;;;;;;;;;;;;;;34.10;29.05;99671.06;5089445;28;19912;-37
2023/06/20 06:04:17;;;;;;;;;;;;;;;33.64;29.37;99670.88;5090599;28;19919;-37
2023/06/20 06:06:43;;;;;;;;;;;;;;;34.74;28.42;99674.25;5091413;28;20007;-37
2023/06/20 06:09:09;;;;;;;;;;;;;;;34.89;28.03;99674.50;5090928;28;19976;-35
2023/06/20 06:11:36;;;;;;;;;;;;;;;34.99;28.49;99671.13;5090671;28;20010;-35
2023/06/20 06:14:01;;;;;;;;;;;;;;;35.31;27.38;99676.38;5089931;28;19917;-36
2023/06/20 06:16:26;;;;;;;;;;;;;;;34.00;28.99;99664.13;5089539;28;20510;-36
2023/06/20 06:18:52;;;;;;;;;;;;;;;34.95;28.10;99660.00;5089354;28;19920;-36
2023/06/20 06:21:17;;;;;;;;;;;;;;;34.71;27.59;99661.19;5089840;28;20432;-37
2023/06/20 06:23:43;;;;;;;;;;;;;;;35.58;27.18;99669.63;5090697;28;19919;-37
2023/06/20 06:26:08;;;;;;;;;;;;;;;36.14;26.47;99664.44;5090865;28;20359;-36
2023/06/20 06:28:34;;;;;;;;;;;;;;;36.27;25.90;99653.91;5090973;28;19912;-36
2023/06/20 06:30:59;;;;;;;;;;;;;;;35.75;26.50;99651.72;5090851;28;19952;-37
2023/06/20 06:33:25;;;;;;;;;;;;;;;35.21;27.04;99659.25;5090768;28;20303;-37
2023/06/20 06:35:51;;;;;;;;;;;;;;;35.07;28.03;99653.47;5090735;28;19913;-36
2023/06/20 06:38:16;;;;;;;;;;;;;;;34.04;29.28;99658.69;5090406;28;20312;-36
2023/06/20 06:40:43;;;;;;;;;;;;;;;34.99;27.88;99660.06;5090267;28;19916;-37
2023/06/20 06:43:09;;;;;;;;;;;;;;;35.39;27.14;99659.50;5090773;28;19999;-37
2023/06/20 06:45:36;;;;;;;;;;;;;;;35.95;26.39;99643.28;5090526;28;19994;-37
2023/06/20 06:48:01;;;;;;;;;;;;;;;36.36;25.77;99651.63;5093927;28;19919;-37
2023/06/20 06:50:26;;;;;;;;;;;;;;;35.20;27.01;99646.59;5094131;28;19912;-36
2023/06/20 06:52:52;;;;;;;;;;;;;;;35.23;27.37;99647.81;5093665;28;19916;-36
2023/06/20 06:55:17;;;;;;;;;;;;;;;34.48;27.43;99644.56;5094053;28;20000;-38
2023/06/20 06:57:42;;;;;;;;;;;;;;;35.32;27.23;99648.34;5093870;28;20360;-37
2023/06/20 07:00:14;;;;;;;;;;;;;;;36.32;25.89;99642.50;5093622;28;19923;-37
2023/06/20 07:02:39;;;;;;;;;;;;;;;35.46;25.84;99633.91;5093517;28;19923;-37
2023/06/20 07:05:05;;;;;;;;;;;;;;;35.04;26.78;99630.13;5094022;28;19912;-36
2023/06/20 07:07:30;;;;;;;;;;;;;;;34.38;27.62;99623.88;5094018;28;20357;-36
2023/06/20 07:09:55;;;;;;;;;;;;;;;33.53;27.94;99618.22;5093532;28;20288;-36
2023/06/20 07:12:21;;;;;;;;;;;;;;;33.71;28.05;99617.84;5094108;28;19912;-37
2023/06/20 07:14:46;;;;;;;;;;;;;;;34.37;26.78;99615.97;5093792;28;20395;-38
2023/06/20 07:17:11;;;;;;;;;;;;;;;35.10;25.95;99619.56;5094289;28;20020;-37
2023/06/20 07:19:37;;;;;;;;;;;;;;;35.81;25.16;99616.19;5093495;28;19991;-36
2023/06/20 07:22:02;;;;;;;;;;;;;;;35.65;25.45;99632.19;5093360;28;20403;-36
2023/06/20 07:24:28;;;;;;;;;;;;;;;35.47;25.84;99626.41;5093141;28;19973;-36
2023/06/20 07:26:53;;;;;;;;;;;;;;;35.19;26.42;99627.63;5093058;28;19973;-37
2023/06/20 07:29:18;;;;;;;;;;;;;;;35.00;26.55;99628.50;5093116;28;19911;-36
2023/06/20 07:31:44;;;;;;;;;;;;;;;35.87;25.71;99628.56;5093412;28;19980;-36
2023/06/20 07:34:09;;;;;;;;;;;;;;;36.53;25.01;99636.38;5093053;28;20026;-36
2023/06/20 07:36:34;;;;;;;;;;;;;;;34.67;26.63;99640.97;5093282;28;20219;-36
2023/06/20 07:39:00;;;;;;;;;;;;;;;34.99;26.15;99635.97;5093103;28;19912;-36
2023/06/20 07:41:25;;;;;;;;;;;;;;;35.69;26.11;99642.16;5093073;28;19912;-37
2023/06/20 07:43:50;;;;;;;;;;;;;;;36.55;25.09;99628.47;5093430;28;20008;-37
2023/06/20 07:46:16;;;;;;;;;;;;;;;35.82;25.65;99642.72;5093322;28;19960;-38
2023/06/20 07:48:41;;;;;;;;;;;;;;;35.97;25.94;99641.72;5093093;28;19919;-36
2023/06/20 07:51:06;;;;;;;;;;;;;;;36.07;25.95;99644.97;5093024;28;19912;-37
2023/06/20 07:53:32;;;;;;;;;;;;;;;35.66;26.67;99645.63;5092786;28;19917;-37
2023/06/20 07:55:59;;;;;;;;;;;;;;;36.00;26.07;99637.38;5092796;28;19912;-37
2023/06/20 07:58:25;;;;;;;;;;;;;;;35.44;26.61;99648.13;5092236;28;19916;-35
2023/06/20 08:00:50;;;;;;;;;;;;;;;36.16;25.97;99637.19;5092390;28;20302;-35
2023/06/20 08:03:16;;;;;;;;;;;;;;;36.36;25.97;99646.88;5092612;28;20007;-36
2023/06/20 08:05:42;;;;;;;;;;;;;;;37.08;25.23;99649.50;5092504;28;20367;-36
2023/06/20 08:08:07;;;;;;;;;;;;;;;37.43;23.84;99654.50;5092746;28;20002;-36
2023/06/20 08:10:32;;;;;;;;;;;;;;;37.42;24.46;99652.94;5092681;28;19985;-37
2023/06/20 08:12:57;;;;;;;;;;;;;;;37.04;24.50;99641.16;5092425;28;20015;-35
2023/06/20 08:15:23;;;;;;;;;;;;;;;36.50;25.60;99650.97;5092515;28;19920;-37
2023/06/20 08:17:48;;;;;;;;;;;;;;;36.51;25.23;99647.81;5092313;28;20354;-37
2023/06/20 08:20:13;;;;;;;;;;;;;;;36.16;26.17;99649.03;5092296;28;19916;-36
2023/06/20 08:22:38;;;;;;;;;;;;;;;36.12;25.38;99652.94;5092400;28;19980;-37
2023/06/20 08:25:04;;;;;;;;;;;;;;;36.64;24.84;99655.88;5092208;28;20303;-37
2023/06/20 08:27:29;;;;;;;;;;;;;;;35.94;25.63;99649.97;5092083;28;19923;-37
2023/06/20 08:29:55;;;;;;;;;;;;;;;35.75;25.93;99648.16;5092065;28;19923;-37
2023/06/20 08:32:20;;;;;;;;;;;;;;;35.67;26.05;99644.47;5091769;28;20451;-36
2023/06/20 08:34:49;;;;;;;;;;;;;;;35.32;26.49;99642.00;5091310;28;19922;-36
2023/06/20 08:37:14;;;;;;;;;;;;;;;34.83;26.26;99646.38;5091634;28;19916;-37
2023/06/20 08:39:39;;;;;;;;;;;;;;;35.04;26.66;99632.91;5091936;28;19919;-37
2023/06/20 08:42:05;;;;;;;;;;;;;;;34.84;26.96;99636.91;5091742;28;19912;-38
2023/06/20 08:44:30;;;;;;;;;;;;;;;34.65;26.13;99630.28;5091513;28;19931;-35
2023/06/20 08:46:58;;;;;;;;;;;;;;;35.60;26.15;99631.34;5091491;28;19985;-35
2023/06/20 08:49:24;;;;;;;;;;;;;;;35.48;25.67;99628.81;5091558;28;20014;-38
2023/06/20 08:51:49;;;;;;;;;;;;;;;36.54;24.54;99626.91;5091290;28;20426;-37
2023/06/20 08:54:16;;;;;;;;;;;;;;;36.23;24.79;99625.38;5091262;28;19911;-38
2023/06/20 08:56:42;;;;;;;;;;;;;;;36.08;24.80;99624.41;5091346;28;20358;-37
2023/06/20 08:59:08;;;;;;;;;;;;;;;36.46;24.53;99616.91;5091598;28;20023;-36
2023/06/20 09:01:35;;;;;;;;;;;;;;;36.58;24.22;99617.41;5091569;28;20391;-38
2023/06/20 09:04:03;;;;;;;;;;;;;;;36.14;24.75;99612.63;5091064;28;19912;-37
2023/06/20 09:06:37;;;;;;;;;;;;;;;36.69;24.32;99619.50;5091083;28;19935;-36
2023/06/20 09:09:14;;;;;;;;;;;;;;;37.67;24.28;99619.78;5091040;28;19977;-36
2023/06/20 09:11:39;;;;;;;;;;;;;;;36.29;25.04;99616.38;5090632;28;19912;-37
2023/06/20 09:14:04;;;;;;;;;;;;;;;36.57;24.36;99621.34;5090761;28;20249;-36
2023/06/20 09:16:29;;;;;;;;;;;;;;;36.93;23.80;99621.69;5091301;28;20002;-38
2023/06/20 09:18:57;;;;;;;;;;;;;;;37.36;23.07;99629.53;5090826;28;19970;-36
2023/06/20 09:21:23;;;;;;;;;;;;;;;37.33;22.33;99624.72;5091108;28;19919;-37
2023/06/20 09:23:48;;;;;;;;;;;;;;;37.93;21.75;99635.34;5090844;28;19912;-37
2023/06/20 09:26:15;;;;;;;;;;;;;;;38.55;21.58;99627.19;5090740;28;19915;-36
2023/06/20 09:28:40;;;;;;;;;;;;;;;39.09;21.19;99622.41;5090595;28;19944;-38
2023/06/20 09:31:05;;;;;;;;;;;;;;;38.17;20.40;99618.38;5090655;28;19959;-38
2023/06/20 09:33:30;;;;;;;;;;;;;;;37.75;20.74;99623.38;5090529;28;20367;-37
2023/06/20 09:36:15;;;;;;;;;;;;;;;38.46;20.10;99627.53;5090669;28;19912;-38
2023/06/20 09:38:44;;;;;;;;;;;;;;;38.96;20.70;99607.31;5090328;28;20008;-37
2023/06/20 09:41:13;;;;;;;;;;;;;;;38.04;20.95;99609.56;5090646;28;19913;-35
2023/06/20 09:43:39;;;;;;;;;;;;;;;37.69;21.58;99605.50;5090427;28;19920;-37
2023/06/20 09:46:04;;;;;;;;;;;;;;;37.39;21.41;99605.75;5090061;28;19980;-36
2023/06/20 09:48:31;;;;;;;;;;;;;;;36.55;23.05;99598.78;5091403;28;20015;-37
2023/06/20 09:50:57;;;;;;;;;;;;;;;36.23;23.74;99600.47;5090943;28;19912;-37
2023/06/20 09:53:26;;;;;;;;;;;;;;;36.24;22.24;99596.53;5091025;28;20023;-37
2023/06/20 09:55:52;;;;;;;;;;;;;;;35.77;23.21;99605.09;5090964;28;19912;-36
2023/06/20 09:58:19;;;;;;;;;;;;;;;36.13;23.51;99610.22;5091079;28;19923;-36
2023/06/20 10:00:44;;;;;;;;;;;;;;;36.55;23.08;99596.00;5090673;28;19919;-36
2023/06/20 10:03:10;;;;;;;;;;;;;;;36.87;23.21;99597.47;5090460;28;19912;-37
2023/06/20 10:05:36;;;;;;;;;;;;;;;36.45;23.12;99595.94;5091050;28;20321;-37
2023/06/20 10:08:01;;;;;;;;;;;;;;;36.76;22.62;99591.84;5091054;28;20327;-37
2023/06/20 10:10:27;;;;;;;;;;;;;;;37.07;23.38;99598.00;5090622;28;19919;-36
2023/06/20 10:12:55;;;;;;;;;;;;;;;36.76;23.16;99594.63;5090836;28;20065;-37
2023/06/20 10:15:21;;;;;;;;;;;;;;;36.48;23.72;99587.66;5090750;28;20359;-36
2023/06/20 10:17:47;;;;;;;;;;;;;;;36.67;24.01;99594.97;5090745;28;19926;-38
2023/06/20 10:20:28;;;;;;;;;;;;;;;36.83;23.84;99588.34;5090681;28;20276;-36
2023/06/20 10:22:58;;;;;;;;;;;;;;;36.56;22.90;99588.50;5093722;28;19916;-36
2023/06/20 10:25:25;;;;;;;;;;;;;;;35.29;23.61;99579.16;5094389;28;19912;-36
2023/06/20 10:27:53;;;;;;;;;;;;;;;35.07;23.71;99573.28;5093981;28;19912;-37
2023/06/20 10:30:39;;;;;;;;;;;;;;;35.26;24.71;99575.16;5094127;28;19959;-36
2023/06/20 10:33:05;;;;;;;;;;;;;;;35.22;24.03;99572.38;5093689;28;20019;-37
2023/06/20 10:35:31;;;;;;;;;;;;;;;35.50;24.28;99576.66;5094077;28;19912;-35
2023/06/20 10:38:05;;;;;;;;;;;;;;;35.31;24.62;99568.53;5093545;28;20019;-36
2023/06/20 10:40:33;;;;;;;;;;;;;;;36.24;24.14;99563.31;5094352;28;19962;-37
2023/06/20 10:42:59;;;;;;;;;;;;;;;36.09;23.18;99565.88;5094077;28;20015;-37
2023/06/20 10:45:26;;;;;;;;;;;;;;;35.36;23.59;99551.63;5094394;28;20348;-37
2023/06/20 10:47:55;;;;;;;;;;;;;;;35.65;23.08;99566.56;5094497;28;20414;-36
2023/06/20 10:50:20;;;;;;;;;;;;;;;35.26;23.17;99561.34;5094326;28;19916;-37
2023/06/20 10:52:46;;;;;;;;;;;;;;;34.45;23.76;99565.22;5093816;28;19939;-37
2023/06/20 10:55:16;;;;;;;;;;;;;;;34.89;23.16;99555.66;5094225;28;19966;-37
2023/06/20 10:57:45;;;;;;;;;;;;;;;34.28;23.65;99566.50;5092830;28;19912;-36
2023/06/20 11:00:14;;;;;;;;;;;;;;;34.53;23.86;99555.09;5081092;28;19916;-36
2023/06/20 11:02:40;;;;;;;;;;;;;;;34.41;23.83;99558.84;5073152;28;20005;-36
2023/06/20 11:05:06;;;;;;;;;;;;;;;34.38;24.08;99556.81;5091058;28;19923;-36
2023/06/20 11:07:32;;;;;;;;;;;;;;;33.84;24.35;99564.88;5093700;28;19912;-38
2023/06/20 11:09:57;;;;;;;;;;;;;;;34.26;24.40;99564.09;5093498;28;19920;-37
2023/06/20 11:12:22;;;;;;;;;;;;;;;34.36;24.10;99559.13;5093417;28;19948;-37
2023/06/20 11:14:47;;;;;;;;;;;;;;;34.50;23.85;99564.91;5093719;28;19912;-36
2023/06/20 11:17:13;;;;;;;;;;;;;;;34.64;24.57;99569.88;5093091;28;19913;-37
2023/06/20 11:19:38;;;;;;;;;;;;;;;34.33;24.52;99557.94;5093302;28;19912;-37
2023/06/20 11:22:04;;;;;;;;;;;;;;;34.46;24.32;99548.28;5091483;28;19989;-36
2023/06/20 11:24:31;;;;;;;;;;;;;;;34.22;24.49;99549.44;5089179;28;20316;-36
2023/06/20 11:27:09;;;;;;;;;;;;;;;34.47;24.74;99543.56;5092775;28;19916;-36
2023/06/20 11:29:37;;;;;;;;;;;;;;;34.82;24.54;99540.59;5093082;28;19928;-37
2023/06/20 11:32:11;;;;;;;;;;;;;;;34.90;24.24;99540.66;5093205;28;19928;-37
2023/06/20 11:34:59;;;;;;;;;;;;;;;34.74;24.16;99540.84;5092664;28;19929;-36
2023/06/20 11:37:24;;;;;;;;;;;;;;;34.88;24.46;99537.47;5093695;28;19984;-36
2023/06/20 11:39:50;;;;;;;;;;;;;;;34.87;23.92;99552.47;5093194;28;19915;-36
2023/06/20 11:42:15;;;;;;;;;;;;;;;35.03;23.68;99540.09;5092831;28;19923;-37
2023/06/20 11:44:41;;;;;;;;;;;;;;;35.15;23.79;99544.59;5092217;28;20051;-37
2023/06/20 11:47:06;;;;;;;;;;;;;;;34.85;24.18;99537.06;5091690;28;20350;-43
2023/06/20 11:49:32;;;;;;;;;;;;;;;34.32;24.51;99541.72;5091972;28;19915;-36
2023/06/20 11:51:58;;;;;;;;;;;;;;;34.32;23.88;99531.47;5091902;28;19912;-37
2023/06/20 11:54:24;;;;;;;;;;;;;;;34.78;24.23;99534.19;5092567;28;19926;-37
2023/06/20 11:56:50;;;;;;;;;;;;;;;35.49;23.67;99530.84;5093284;28;19918;-38
2023/06/20 11:59:21;;;;;;;;;;;;;;;35.10;22.92;99525.56;5093527;28;19915;-39
2023/06/20 12:01:46;;;;;;;;;;;;;;;35.29;23.92;99524.66;5093186;28;20352;-37
2023/06/20 12:04:14;;;;;;;;;;;;;;;35.47;23.51;99513.00;5091782;28;19955;-36
2023/06/20 12:06:42;;;;;;;;;;;;;;;35.13;23.71;99519.28;5089329;28;20022;-36
2023/06/20 12:09:23;;;;;;;;;;;;;;;35.33;23.39;99525.47;5089804;28;19928;-36
2023/06/20 12:11:49;;;;;;;;;;;;;;;35.82;23.30;99527.25;5092378;28;19919;-37
2023/06/20 12:14:15;;;;;;;;;;;;;;;35.49;22.58;99528.06;5090346;28;19917;-36
2023/06/20 12:16:40;;;;;;;;;;;;;;;35.49;22.72;99533.59;5091151;28;19994;-37
2023/06/20 12:19:05;;;;;;;;;;;;;;;35.04;22.98;99541.66;5091142;28;20372;-36
2023/06/20 12:21:34;;;;;;;;;;;;;;;35.05;23.54;99526.69;5090879;28;19912;-37
2023/06/20 12:24:00;;;;;;;;;;;;;;;35.09;23.39;99529.50;5091408;28;20333;-36
2023/06/20 12:26:25;;;;;;;;;;;;;;;35.24;23.81;99530.50;5090899;28;20113;-37
2023/06/20 12:28:50;;;;;;;;;;;;;;;35.12;22.38;99533.47;5091951;28;20024;-36
2023/06/20 12:31:16;;;;;;;;;;;;;;;34.61;21.74;99531.91;5091743;28;20006;-36
2023/06/20 12:33:41;;;;;;;;;;;;;;;34.96;21.87;99539.19;5092002;28;19980;-37
2023/06/20 12:36:07;;;;;;;;;;;;;;;34.78;22.70;99527.88;5091654;28;19919;-37
2023/06/20 12:38:34;;;;;;;;;;;;;;;35.16;22.28;99526.03;5090925;28;19916;-36
2023/06/20 12:40:59;;;;;;;;;;;;;;;35.03;21.51;99519.94;5091273;28;20309;-36
2023/06/20 12:43:24;;;;;;;;;;;;;;;34.86;22.57;99526.78;5091793;28;19926;-37
2023/06/20 12:45:49;;;;;;;;;;;;;;;34.89;22.15;99523.28;5091524;28;20461;-37